Time;durP1;ratioP1;P1;durP2;ratioP2;P2;SDS_P1;SDS_P2;PMS_P1;PMS_P2;Temp;Humidity;BMP_temperature;BMP_pressure;BME280_temperature;BME280_humidity;BME280_pressure;Samples;Min_cycle;Max_cycle;Signal;HPM_P1;HPM_P2
2023/11/23 00:01:37;;;;;;;18.70;13.63;;;3.50;61.10;;;;;;5025918;28;20271;-58
2023/11/23 00:04:04;;;;;;;16.23;12.77;;;3.50;61.00;;;;;;5022911;28;20241;-54
2023/11/23 00:06:30;;;;;;;16.97;13.53;;;3.50;61.50;;;;;;5029808;28;20236;-56
2023/11/23 00:08:56;;;;;;;16.13;13.17;;;3.50;61.00;;;;;;5026084;28;20205;-58
2023/11/23 00:11:24;;;;;;;20.03;14.27;;;3.50;61.00;;;;;;5027482;28;20330;-56
2023/11/23 00:13:50;;;;;;;19.40;13.67;;;3.50;61.60;;;;;;5021781;28;20234;-56
2023/11/23 00:16:17;;;;;;;16.57;13.17;;;3.50;62.00;;;;;;5025651;28;20465;-55
2023/11/23 00:18:44;;;;;;;18.87;14.67;;;3.50;61.50;;;;;;5022749;28;20300;-55
2023/11/23 00:21:10;;;;;;;18.83;14.80;;;3.50;61.90;;;;;;5020388;28;20688;-57
2023/11/23 00:23:37;;;;;;;18.83;15.00;;;3.50;62.20;;;;;;5020670;28;20221;-58
2023/11/23 00:26:04;;;;;;;19.70;15.37;;;3.40;62.20;;;;;;5024350;28;20233;-56
2023/11/23 00:28:30;;;;;;;19.07;15.10;;;3.40;62.20;;;;;;5022863;28;20217;-57
2023/11/23 00:30:58;;;;;;;19.43;14.97;;;3.50;62.30;;;;;;5021737;28;20200;-57
2023/11/23 00:33:24;;;;;;;19.70;16.13;;;3.50;62.30;;;;;;5025974;28;20676;-58
2023/11/23 00:35:51;;;;;;;21.07;15.50;;;3.40;62.20;;;;;;5019508;28;20672;-57
2023/11/23 00:38:18;;;;;;;22.73;16.30;;;3.30;63.00;;;;;;5023158;28;20676;-58
2023/11/23 00:40:45;;;;;;;21.37;15.80;;;3.30;63.30;;;;;;5023399;28;20221;-56
2023/11/23 00:43:11;;;;;;;20.10;15.57;;;3.40;63.30;;;;;;5025285;28;20205;-58
2023/11/23 00:45:38;;;;;;;21.70;16.67;;;3.50;63.40;;;;;;5028693;28;20680;-58
2023/11/23 00:48:05;;;;;;;21.37;16.30;;;3.50;63.20;;;;;;5021913;28;20437;-58
2023/11/23 00:50:32;;;;;;;23.07;15.90;;;3.50;63.10;;;;;;5022362;28;20210;-56
2023/11/23 00:52:58;;;;;;;20.07;15.03;;;3.40;63.30;;;;;;5031493;28;20573;-58
2023/11/23 00:55:25;;;;;;;19.23;15.47;;;3.50;63.20;;;;;;5031548;28;20229;-58
2023/11/23 00:57:52;;;;;;;19.80;15.53;;;3.40;63.60;;;;;;5031605;28;20241;-55
2023/11/23 01:00:18;;;;;;;19.07;14.43;;;3.40;63.60;;;;;;5027477;28;20242;-57
2023/11/23 01:02:46;;;;;;;19.97;14.80;;;3.40;63.70;;;;;;5025629;28;20202;-54
2023/11/23 01:05:12;;;;;;;17.80;14.47;;;3.40;63.30;;;;;;5020917;28;20237;-55
2023/11/23 01:07:39;;;;;;;19.30;14.63;;;3.50;63.20;;;;;;5023977;28;20971;-58
2023/11/23 01:10:05;;;;;;;18.73;14.73;;;3.40;63.20;;;;;;5031838;28;20267;-59
2023/11/23 01:12:32;;;;;;;18.10;14.50;;;3.40;63.20;;;;;;5025111;28;20203;-56
2023/11/23 01:14:58;;;;;;;19.03;14.47;;;3.50;63.10;;;;;;5028665;28;20229;-53
2023/11/23 01:17:25;;;;;;;16.77;13.50;;;3.50;62.30;;;;;;5021177;28;20205;-58
2023/11/23 01:19:51;;;;;;;19.30;14.73;;;3.50;62.30;;;;;;5023241;28;20198;-58
2023/11/23 01:22:18;;;;;;;18.30;14.03;;;3.40;62.40;;;;;;5021724;28;20238;-57
2023/11/23 01:24:44;;;;;;;19.60;14.10;;;3.40;62.20;;;;;;5025199;28;20316;-58
2023/11/23 01:27:11;;;;;;;18.10;13.97;;;3.40;62.20;;;;;;5027099;28;20209;-54
2023/11/23 01:29:37;;;;;;;16.83;13.73;;;3.40;62.20;;;;;;5025043;28;20653;-54
2023/11/23 01:32:04;;;;;;;18.10;13.83;;;3.40;62.50;;;;;;5023952;28;20579;-55
2023/11/23 01:34:30;;;;;;;16.67;12.33;;;3.30;62.10;;;;;;5029755;28;20633;-56
2023/11/23 01:36:56;;;;;;;19.67;13.83;;;3.30;62.10;;;;;;5017059;28;20678;-56
2023/11/23 01:39:23;;;;;;;17.90;14.13;;;3.40;62.20;;;;;;5029943;28;20308;-57
2023/11/23 01:41:51;;;;;;;17.17;12.87;;;3.40;62.10;;;;;;5025136;28;20225;-56
2023/11/23 01:44:19;;;;;;;18.07;12.63;;;3.40;62.20;;;;;;5026668;28;20298;-59
2023/11/23 01:46:46;;;;;;;14.83;12.33;;;3.30;62.10;;;;;;5024933;28;20669;-55
2023/11/23 01:49:12;;;;;;;16.80;13.27;;;3.30;62.10;;;;;;5023284;28;20297;-56
2023/11/23 01:51:39;;;;;;;15.00;12.83;;;3.30;62.10;;;;;;5028913;28;20236;-57
2023/11/23 01:54:05;;;;;;;16.20;13.50;;;3.30;62.10;;;;;;5024200;28;20293;-58
2023/11/23 01:56:31;;;;;;;16.60;13.63;;;3.20;61.90;;;;;;5027440;28;20316;-56
2023/11/23 01:58:58;;;;;;;15.57;13.63;;;3.20;61.90;;;;;;5023938;28;20309;-57
2023/11/23 02:01:24;;;;;;;15.97;13.20;;;3.20;62.00;;;;;;5014502;28;20701;-56
2023/11/23 02:03:51;;;;;;;15.73;13.23;;;3.20;62.00;;;;;;5024245;28;20212;-54
2023/11/23 02:06:18;;;;;;;16.47;13.30;;;3.30;62.10;;;;;;5027582;28;20316;-56
2023/11/23 02:08:45;;;;;;;15.17;12.20;;;3.20;61.90;;;;;;5024033;28;20210;-55
2023/11/23 02:11:11;;;;;;;15.43;13.13;;;3.30;62.10;;;;;;5026534;28;20209;-57
2023/11/23 02:13:38;;;;;;;14.13;11.53;;;3.30;62.00;;;;;;5029689;28;20209;-57
2023/11/23 02:16:05;;;;;;;16.40;12.90;;;3.30;62.10;;;;;;5031427;28;20229;-60
2023/11/23 02:18:31;;;;;;;14.07;11.37;;;3.30;62.10;;;;;;5029773;28;20209;-56
2023/11/23 02:20:58;;;;;;;15.00;11.73;;;3.30;62.10;;;;;;5019065;28;20213;-56
2023/11/23 02:23:25;;;;;;;15.47;12.37;;;3.30;62.10;;;;;;5024693;28;20236;-55
2023/11/23 02:25:51;;;;;;;17.03;12.23;;;3.30;62.10;;;;;;5023649;28;20236;-53
2023/11/23 02:28:18;;;;;;;15.37;12.23;;;3.30;62.10;;;;;;5027140;28;20264;-55
2023/11/23 02:30:44;;;;;;;13.00;11.60;;;3.40;62.10;;;;;;5027602;28;20239;-57
2023/11/23 02:33:10;;;;;;;15.20;12.00;;;3.40;62.20;;;;;;5026766;28;20205;-59
2023/11/23 02:35:36;;;;;;;15.20;12.17;;;3.40;62.20;;;;;;5024012;28;20235;-58
2023/11/23 02:38:03;;;;;;;12.80;10.47;;;3.40;62.80;;;;;;5027542;28;20259;-58
2023/11/23 02:40:29;;;;;;;14.43;11.00;;;3.40;62.20;;;;;;5027733;28;20205;-54
2023/11/23 02:42:56;;;;;;;14.23;11.67;;;3.40;62.20;;;;;;5017821;28;20226;-57
2023/11/23 02:45:22;;;;;;;15.97;11.77;;;3.40;62.20;;;;;;5021609;28;20232;-55
2023/11/23 02:47:49;;;;;;;14.87;10.73;;;3.40;62.20;;;;;;5030262;28;20216;-54
2023/11/23 02:50:15;;;;;;;12.77;10.57;;;3.30;62.10;;;;;;5019711;28;20206;-56
2023/11/23 02:52:42;;;;;;;13.37;10.17;;;3.30;62.10;;;;;;5025717;28;20580;-56
2023/11/23 02:55:09;;;;;;;13.63;10.53;;;3.20;61.90;;;;;;5025467;28;20237;-57
2023/11/23 02:57:35;;;;;;;14.23;10.83;;;3.20;62.00;;;;;;5028506;28;20257;-58
2023/11/23 03:00:02;;;;;;;14.17;10.67;;;3.20;62.00;;;;;;5028169;28;20296;-56
2023/11/23 03:02:28;;;;;;;13.00;11.00;;;3.20;62.00;;;;;;5019980;28;20284;-56
2023/11/23 03:04:55;;;;;;;14.90;10.83;;;3.30;62.10;;;;;;5027741;28;20236;-54
2023/11/23 03:07:21;;;;;;;13.70;10.33;;;3.30;62.10;;;;;;5022438;28;20209;-53
2023/11/23 03:09:48;;;;;;;13.77;11.43;;;3.30;62.10;;;;;;5025742;28;20218;-55
2023/11/23 03:12:14;;;;;;;14.57;10.97;;;3.30;62.10;;;;;;5023660;28;20555;-55
2023/11/23 03:14:40;;;;;;;14.60;10.43;;;3.30;62.10;;;;;;5023971;28;20223;-57
2023/11/23 03:17:07;;;;;;;12.57;9.80;;;3.20;62.00;;;;;;5022881;28;20220;-58
2023/11/23 03:19:34;;;;;;;14.90;10.73;;;3.30;62.10;;;;;;5025009;28;20201;-54
2023/11/23 03:22:00;;;;;;;12.83;10.27;;;3.30;62.10;;;;;;5021132;28;20700;-53
2023/11/23 03:24:27;;;;;;;14.67;11.13;;;3.30;62.10;;;;;;5022527;28;20205;-55
2023/11/23 03:26:53;;;;;;;13.67;10.63;;;3.30;62.10;;;;;;5022637;28;20214;-58
2023/11/23 03:29:20;;;;;;;12.23;9.67;;;3.40;62.20;;;;;;5022310;28;20210;-55
2023/11/23 03:31:47;;;;;;;14.20;10.87;;;3.40;62.10;;;;;;5027496;28;20201;-55
2023/11/23 03:34:13;;;;;;;13.30;10.77;;;3.40;62.20;;;;;;5024345;28;20661;-53
2023/11/23 03:36:40;;;;;;;12.87;10.93;;;3.40;62.20;;;;;;5016484;28;20280;-58
2023/11/23 03:39:06;;;;;;;15.33;10.80;;;3.40;62.20;;;;;;5025736;28;20296;-57
2023/11/23 03:41:33;;;;;;;13.97;11.13;;;3.40;62.20;;;;;;5020016;28;20610;-54
2023/11/23 03:43:59;;;;;;;16.23;12.17;;;3.30;62.10;;;;;;5023185;28;20210;-55
2023/11/23 03:46:26;;;;;;;12.90;10.40;;;3.30;62.10;;;;;;5021150;28;20230;-56
2023/11/23 03:48:52;;;;;;;16.03;11.57;;;3.30;62.10;;;;;;5022918;28;20206;-58
2023/11/23 03:51:19;;;;;;;15.37;10.97;;;3.30;62.10;;;;;;5022160;28;20288;-57
2023/11/23 03:53:45;;;;;;;14.07;10.90;;;3.30;62.10;;;;;;5028415;28;20206;-58
2023/11/23 03:56:12;;;;;;;15.90;11.60;;;3.30;62.10;;;;;;5024697;28;20692;-57
2023/11/23 03:58:38;;;;;;;15.87;11.93;;;3.20;62.10;;;;;;5019271;28;20649;-55
2023/11/23 04:01:05;;;;;;;15.30;11.27;;;3.20;62.50;;;;;;5019412;28;20310;-52
2023/11/23 04:03:31;;;;;;;15.47;12.13;;;3.20;62.20;;;;;;5021695;28;20688;-56
2023/11/23 04:05:58;;;;;;;16.57;11.80;;;3.20;62.40;;;;;;5024637;28;20229;-56
2023/11/23 04:08:24;;;;;;;14.50;11.27;;;3.20;62.60;;;;;;5021201;28;20202;-55
2023/11/23 04:10:51;;;;;;;16.90;12.03;;;3.10;62.70;;;;;;5018049;28;20217;-54
2023/11/23 04:13:17;;;;;;;15.63;12.27;;;3.20;62.20;;;;;;5021338;28;20240;-52
2023/11/23 04:15:45;;;;;;;16.17;12.40;;;3.20;62.50;;;;;;5014985;28;20666;-54
2023/11/23 04:18:11;;;;;;;17.73;12.90;;;3.10;62.40;;;;;;5024189;28;20202;-55
2023/11/23 04:20:37;;;;;;;17.60;13.03;;;3.20;62.50;;;;;;5024713;28;20216;-53
2023/11/23 04:23:03;;;;;;;13.83;11.63;;;3.20;62.40;;;;;;5033000;28;20224;-54
2023/11/23 04:25:30;;;;;;;15.10;11.50;;;3.20;62.80;;;;;;5023765;28;20721;-54
2023/11/23 04:27:57;;;;;;;16.33;12.03;;;3.20;62.60;;;;;;5033429;28;20242;-53
2023/11/23 04:30:24;;;;;;;15.03;12.20;;;3.10;62.30;;;;;;5026872;28;20225;-53
2023/11/23 04:32:52;;;;;;;13.93;11.87;;;3.10;61.90;;;;;;5033772;28;20198;-57
2023/11/23 04:35:18;;;;;;;15.37;11.50;;;3.10;61.90;;;;;;5031953;28;20233;-54
2023/11/23 04:37:45;;;;;;;15.30;11.73;;;3.20;62.00;;;;;;5034519;28;20212;-54
2023/11/23 04:40:11;;;;;;;13.87;10.97;;;3.20;62.00;;;;;;5030511;28;20210;-53
2023/11/23 04:42:38;;;;;;;12.73;10.67;;;3.20;62.00;;;;;;5034195;28;20256;-55
2023/11/23 04:45:05;;;;;;;11.67;9.40;;;3.20;61.30;;;;;;5031281;28;20316;-52
2023/11/23 04:47:31;;;;;;;13.43;10.57;;;3.20;61.00;;;;;;5030365;28;20201;-53
2023/11/23 04:49:58;;;;;;;10.80;9.37;;;3.20;61.10;;;;;;5038035;28;20241;-53
2023/11/23 04:52:24;;;;;;;9.97;8.67;;;3.20;61.10;;;;;;5029475;28;20216;-53
2023/11/23 04:54:51;;;;;;;10.40;8.63;;;3.20;60.50;;;;;;5026774;28;20316;-53
2023/11/23 04:57:18;;;;;;;11.80;9.47;;;3.20;60.30;;;;;;5030751;28;20347;-54
2023/11/23 04:59:44;;;;;;;11.03;8.90;;;3.30;60.10;;;;;;5031832;28;20607;-56
2023/11/23 05:02:11;;;;;;;12.77;9.20;;;3.30;60.20;;;;;;5019926;28;20271;-56
2023/11/23 05:04:37;;;;;;;11.67;9.73;;;3.30;59.80;;;;;;5023263;28;20739;-57
2023/11/23 05:07:05;;;;;;;9.83;8.80;;;3.20;59.90;;;;;;5029182;28;20292;-56
2023/11/23 05:09:32;;;;;;;10.33;8.90;;;3.30;60.00;;;;;;5023191;28;20302;-55
2023/11/23 05:11:58;;;;;;;10.80;8.90;;;3.20;59.90;;;;;;5021280;28;20199;-57
2023/11/23 05:14:25;;;;;;;12.23;10.10;;;3.20;59.90;;;;;;5024899;28;20595;-54
2023/11/23 05:16:51;;;;;;;9.90;8.50;;;3.20;60.10;;;;;;5030595;28;20817;-57
2023/11/23 05:19:19;;;;;;;10.90;8.73;;;3.20;60.80;;;;;;5033591;28;20549;-57
2023/11/23 05:21:46;;;;;;;11.80;9.60;;;3.10;60.50;;;;;;5024628;28;20269;-57
2023/11/23 05:24:13;;;;;;;11.67;9.73;;;3.20;60.60;;;;;;5028815;28;20206;-57
2023/11/23 05:26:39;;;;;;;11.70;10.07;;;3.20;60.70;;;;;;5024093;28;20301;-58
2023/11/23 05:29:06;;;;;;;13.97;9.83;;;3.20;60.60;;;;;;5025862;28;20672;-55
2023/11/23 05:31:32;;;;;;;11.27;9.77;;;3.20;60.80;;;;;;5026023;28;20311;-57
2023/11/23 05:33:59;;;;;;;11.60;10.00;;;3.20;60.60;;;;;;5026720;28;20557;-56
2023/11/23 05:36:25;;;;;;;12.03;10.00;;;3.20;61.30;;;;;;5022712;28;20578;-55
2023/11/23 05:38:52;;;;;;;11.43;9.83;;;3.20;61.20;;;;;;5030920;28;20582;-54
2023/11/23 05:41:18;;;;;;;13.67;11.03;;;3.20;61.20;;;;;;5025652;28;20708;-53
2023/11/23 05:43:45;;;;;;;16.03;11.43;;;3.30;61.00;;;;;;5024431;28;20587;-58
2023/11/23 05:46:12;;;;;;;14.10;10.67;;;3.20;61.30;;;;;;5024395;28;20260;-57
2023/11/23 05:48:38;;;;;;;12.97;10.80;;;3.30;61.40;;;;;;5031597;28;20665;-58
2023/11/23 05:51:05;;;;;;;12.30;9.93;;;3.20;60.80;;;;;;5021806;28;20793;-58
2023/11/23 05:53:31;;;;;;;14.23;9.90;;;3.30;61.40;;;;;;5019871;28;20554;-57
2023/11/23 05:55:58;;;;;;;13.10;10.53;;;3.20;60.90;;;;;;5025276;28;20229;-56
2023/11/23 05:58:24;;;;;;;12.70;10.67;;;3.20;61.20;;;;;;5024191;28;20210;-56
2023/11/23 06:00:51;;;;;;;15.53;11.27;;;3.20;61.10;;;;;;5022051;28;20206;-57
2023/11/23 06:03:17;;;;;;;12.27;10.97;;;3.20;61.50;;;;;;5020743;28;20229;-56
2023/11/23 06:05:44;;;;;;;12.87;11.10;;;3.20;61.40;;;;;;5026025;28;20230;-57
2023/11/23 06:08:10;;;;;;;12.77;10.10;;;3.20;61.50;;;;;;5030717;28;20671;-56
2023/11/23 06:10:37;;;;;;;11.47;10.27;;;3.10;61.60;;;;;;5028389;28;20205;-57
2023/11/23 06:13:03;;;;;;;12.60;10.13;;;3.20;61.60;;;;;;5026777;28;20210;-58
2023/11/23 06:15:30;;;;;;;14.33;11.50;;;3.20;61.50;;;;;;5027167;28;20229;-56
2023/11/23 06:17:56;;;;;;;14.23;11.80;;;3.20;61.70;;;;;;5024452;28;20305;-55
2023/11/23 06:20:24;;;;;;;13.93;11.23;;;3.10;61.80;;;;;;5021161;28;20206;-53
2023/11/23 06:22:50;;;;;;;13.20;10.63;;;3.20;62.00;;;;;;5028791;28;20276;-56
2023/11/23 06:25:17;;;;;;;13.03;10.23;;;3.20;62.00;;;;;;5031324;28;20317;-55
2023/11/23 06:27:43;;;;;;;13.63;11.27;;;3.30;62.10;;;;;;5022068;28;20217;-57
2023/11/23 06:30:09;;;;;;;13.47;10.93;;;3.30;62.00;;;;;;5020615;28;20213;-56
2023/11/23 06:32:36;;;;;;;14.00;10.73;;;3.20;62.00;;;;;;5024800;28;20211;-55
2023/11/23 06:35:03;;;;;;;13.00;11.60;;;3.30;62.10;;;;;;5022551;28;20715;-57
2023/11/23 06:37:29;;;;;;;14.97;12.30;;;3.40;62.10;;;;;;5029130;28;20217;-54
2023/11/23 06:39:56;;;;;;;13.57;10.97;;;3.40;62.20;;;;;;5025946;28;20233;-54
2023/11/23 06:42:22;;;;;;;14.63;11.53;;;3.30;62.10;;;;;;5020673;28;20321;-53
2023/11/23 06:44:49;;;;;;;14.27;11.30;;;3.30;62.10;;;;;;5025310;28;20317;-54
2023/11/23 06:47:17;;;;;;;15.83;12.07;;;3.30;62.10;;;;;;5022547;28;20209;-56
2023/11/23 06:49:43;;;;;;;14.37;11.57;;;3.40;62.20;;;;;;5021966;28;20214;-55
2023/11/23 06:52:09;;;;;;;14.43;11.60;;;3.40;62.20;;;;;;5021379;28;20213;-58
2023/11/23 06:54:36;;;;;;;16.10;12.23;;;3.40;62.20;;;;;;5018822;28;20312;-53
2023/11/23 06:57:02;;;;;;;14.90;12.40;;;3.40;62.20;;;;;;5026870;28;20212;-55
2023/11/23 06:59:31;;;;;;;16.13;12.53;;;3.50;62.30;;;;;;5019104;28;20293;-52
2023/11/23 07:01:58;;;;;;;13.33;10.83;;;3.50;62.30;;;;;;5022194;28;20296;-55
2023/11/23 07:04:24;;;;;;;16.97;11.63;;;3.40;62.20;;;;;;5023402;28;20596;-52
2023/11/23 07:06:51;;;;;;;13.77;11.13;;;3.40;62.20;;;;;;5023324;28;20246;-53
2023/11/23 07:09:17;;;;;;;15.37;11.47;;;3.50;62.30;;;;;;5028740;28;20285;-57
2023/11/23 07:11:45;;;;;;;16.63;12.63;;;3.60;62.40;;;;;;5028944;28;20205;-57
2023/11/23 07:14:11;;;;;;;14.73;11.63;;;3.60;62.40;;;;;;5026027;28;20212;-55
2023/11/23 07:16:37;;;;;;;15.33;12.10;;;3.50;62.30;;;;;;5027472;28;20233;-52
2023/11/23 07:19:04;;;;;;;13.87;11.50;;;3.60;62.80;;;;;;5022997;28;20234;-55
2023/11/23 07:21:30;;;;;;;16.63;12.43;;;3.60;63.40;;;;;;5004361;28;20300;-56
2023/11/23 07:23:57;;;;;;;16.40;12.30;;;3.60;63.20;;;;;;5025792;28;20225;-57
2023/11/23 07:26:24;;;;;;;15.13;11.57;;;3.70;62.40;;;;;;5028012;28;20241;-54
2023/11/23 07:28:50;;;;;;;13.37;10.70;;;3.60;62.40;;;;;;5022727;28;20298;-57
2023/11/23 07:31:17;;;;;;;14.83;11.07;;;3.60;62.30;;;;;;5023820;28;20244;-56
2023/11/23 07:33:44;;;;;;;13.40;10.53;;;3.50;62.60;;;;;;5021730;28;20249;-58
2023/11/23 07:36:11;;;;;;;14.10;10.67;;;3.50;63.30;;;;;;5022643;28;20312;-55
2023/11/23 07:38:37;;;;;;;13.77;10.47;;;3.70;63.10;;;;;;5027099;28;20419;-58
2023/11/23 07:41:04;;;;;;;13.73;10.10;;;3.60;62.30;;;;;;5029429;28;20205;-60
2023/11/23 07:43:31;;;;;;;11.97;10.10;;;3.70;62.50;;;;;;5028725;28;20226;-56
2023/11/23 07:45:58;;;;;;;12.70;9.50;;;3.70;62.40;;;;;;5014781;28;20226;-57
2023/11/23 07:48:24;;;;;;;13.57;10.27;;;3.70;62.40;;;;;;5017251;28;20648;-55
2023/11/23 07:50:52;;;;;;;13.27;10.70;;;3.80;62.40;;;;;;5003527;28;20276;-57
2023/11/23 07:53:19;;;;;;;13.40;10.03;;;3.90;62.20;;;;;;5004324;28;20972;-57
2023/11/23 07:55:46;;;;;;;11.50;9.40;;;3.90;62.10;;;;;;5002594;28;21015;-57
2023/11/23 07:58:12;;;;;;;10.50;8.93;;;3.80;61.20;;;;;;5001936;28;20265;-60
2023/11/23 08:00:40;;;;;;;11.00;9.43;;;3.70;61.70;;;;;;4996360;28;20262;-61
2023/11/23 08:03:06;;;;;;;10.70;8.67;;;3.80;61.30;;;;;;5002606;28;20315;-59
2023/11/23 08:05:35;;;;;;;11.87;8.97;;;4.00;60.80;;;;;;4998726;28;20326;-63
2023/11/23 08:08:01;;;;;;;11.97;9.27;;;4.00;60.30;;;;;;5008593;28;20211;-57
2023/11/23 08:10:28;;;;;;;11.63;9.23;;;4.00;60.60;;;;;;5006734;28;20223;-58
2023/11/23 08:12:55;;;;;;;11.50;8.40;;;3.90;60.80;;;;;;5007681;28;20203;-59
2023/11/23 08:15:21;;;;;;;11.37;9.10;;;3.90;61.00;;;;;;5013965;28;20238;-60
2023/11/23 08:17:47;;;;;;;11.47;8.97;;;4.00;61.00;;;;;;5006396;28;21436;-59
2023/11/23 08:20:14;;;;;;;11.00;8.47;;;4.10;60.70;;;;;;5008913;28;20330;-59
2023/11/23 08:22:40;;;;;;;9.60;8.30;;;4.20;60.70;;;;;;5008915;28;20289;-60
2023/11/23 08:25:07;;;;;;;12.00;8.53;;;4.30;60.20;;;;;;5007778;28;20226;-60
2023/11/23 08:27:33;;;;;;;11.77;9.60;;;4.20;60.30;;;;;;5014086;28;20280;-59
2023/11/23 08:30:03;;;;;;;9.57;8.27;;;4.30;60.50;;;;;;5007555;28;20221;-59
2023/11/23 08:32:29;;;;;;;10.90;8.53;;;4.20;60.30;;;;;;5014213;28;20604;-60
2023/11/23 08:34:57;;;;;;;11.43;8.57;;;4.20;60.40;;;;;;5014735;28;20616;-60
2023/11/23 08:37:24;;;;;;;10.67;8.30;;;4.40;60.60;;;;;;5007083;28;20748;-59
2023/11/23 08:39:51;;;;;;;9.63;8.27;;;4.30;60.30;;;;;;5009372;28;20215;-58
2023/11/23 08:42:19;;;;;;;10.53;7.83;;;4.50;60.30;;;;;;5010442;28;20243;-60
2023/11/23 08:44:45;;;;;;;10.97;8.83;;;4.40;59.40;;;;;;5012782;28;20227;-59
2023/11/23 08:47:11;;;;;;;9.50;8.43;;;4.30;60.40;;;;;;5008781;28;20247;-59
2023/11/23 08:49:38;;;;;;;10.20;8.17;;;4.40;59.80;;;;;;5014230;28;20250;-59
2023/11/23 08:52:04;;;;;;;8.20;7.40;;;4.40;59.30;;;;;;5005933;28;20670;-59
2023/11/23 08:54:31;;;;;;;8.30;7.17;;;4.40;59.20;;;;;;5013856;28;20431;-59
2023/11/23 08:56:58;;;;;;;8.57;6.93;;;4.40;59.30;;;;;;5000123;28;20203;-59
2023/11/23 08:59:24;;;;;;;8.40;7.53;;;4.50;59.40;;;;;;5007485;28;20204;-59
2023/11/23 09:01:52;;;;;;;9.00;8.10;;;4.50;59.10;;;;;;5011961;28;20298;-59
2023/11/23 09:04:18;;;;;;;9.30;8.30;;;4.60;58.70;;;;;;5007899;28;20227;-60
2023/11/23 09:06:45;;;;;;;9.13;7.50;;;4.90;58.60;;;;;;5012367;28;20209;-58
2023/11/23 09:09:12;;;;;;;8.80;7.90;;;5.10;57.50;;;;;;5013399;28;20262;-59
2023/11/23 09:11:39;;;;;;;9.63;8.63;;;5.50;56.80;;;;;;5012584;28;20210;-59
2023/11/23 09:14:05;;;;;;;9.90;8.17;;;5.60;56.70;;;;;;5009499;28;20298;-61
2023/11/23 09:16:34;;;;;;;8.60;7.77;;;;;;;;;;5005639;28;20223;-59
2023/11/23 09:19:01;;;;;;;8.23;7.43;;;5.40;56.00;;;;;;5011627;28;20214;-57
2023/11/23 09:21:27;;;;;;;8.40;7.50;;;5.40;56.60;;;;;;5009577;28;20209;-58
2023/11/23 09:23:54;;;;;;;8.97;7.40;;;;;;;;;;5005066;28;20255;-59
2023/11/23 09:26:22;;;;;;;8.17;7.20;;;;;;;;;;5012890;28;20397;-60
2023/11/23 09:28:48;;;;;;;9.10;7.20;;;7.70;52.00;;;;;;5011098;28;20551;-60
2023/11/23 09:31:17;;;;;;;7.80;6.70;;;8.00;50.20;;;;;;5013115;28;20300;-59
2023/11/23 09:33:44;;;;;;;7.97;7.17;;;8.00;49.70;;;;;;5004796;28;20681;-60
2023/11/23 09:36:11;;;;;;;7.67;6.97;;;7.80;49.80;;;;;;5009159;28;20672;-59
2023/11/23 09:38:38;;;;;;;9.03;7.10;;;7.80;50.20;;;;;;5010889;28;20230;-57
2023/11/23 09:41:04;;;;;;;8.10;7.30;;;7.60;49.50;;;;;;5013080;28;20224;-58
2023/11/23 09:43:31;;;;;;;9.00;7.60;;;6.90;50.20;;;;;;5008468;28;20229;-59
2023/11/23 09:45:58;;;;;;;8.40;7.50;;;6.80;50.90;;;;;;5002874;28;20317;-58
2023/11/23 09:48:24;;;;;;;8.00;7.20;;;6.90;51.00;;;;;;5013139;28;20305;-60
2023/11/23 09:50:51;;;;;;;9.03;6.87;;;7.30;51.00;;;;;;5012815;28;20212;-59
2023/11/23 09:53:17;;;;;;;8.27;7.40;;;7.70;49.50;;;;;;5008138;28;20218;-58
2023/11/23 09:55:44;;;;;;;7.93;7.07;;;7.80;48.80;;;;;;5011259;28;20243;-60
2023/11/23 09:58:10;;;;;;;8.00;7.20;;;7.90;48.20;;;;;;5003233;28;20665;-58
2023/11/23 10:00:37;;;;;;;8.63;7.00;;;7.90;48.20;;;;;;5009222;28;20257;-59
2023/11/23 10:03:03;;;;;;;8.13;7.27;;;7.70;48.10;;;;;;5009879;28;20237;-60
2023/11/23 10:05:30;;;;;;;7.93;7.13;;;8.20;47.50;;;;;;5009932;28;20315;-60
2023/11/23 10:07:56;;;;;;;7.93;7.23;;;8.70;46.10;;;;;;5013105;28;20242;-60
2023/11/23 10:10:23;;;;;;;8.07;7.30;;;9.10;44.80;;;;;;5010327;28;20763;-59
2023/11/23 10:12:49;;;;;;;8.17;7.37;;;9.00;44.60;;;;;;5015160;28;20218;-59
2023/11/23 10:15:16;;;;;;;9.37;7.47;;;9.10;52.40;;;;;;5012451;28;20327;-61
2023/11/23 10:17:42;;;;;;;8.20;7.40;;;9.40;44.00;;;;;;5010746;28;20316;-60
2023/11/23 10:20:10;;;;;;;7.37;6.63;;;9.40;44.10;;;;;;5008998;28;20728;-60
2023/11/23 10:22:39;;;;;;;7.97;7.17;;;10.20;43.20;;;;;;5004796;28;20560;-61
2023/11/23 10:25:06;;;;;;;7.40;6.70;;;10.30;40.50;;;;;;5005576;28;20264;-60
2023/11/23 10:27:32;;;;;;;7.40;6.80;;;10.20;41.10;;;;;;5005403;28;20237;-60
2023/11/23 10:29:59;;;;;;;7.60;6.90;;;10.70;41.70;;;;;;5011952;28;20273;-61
2023/11/23 10:32:25;;;;;;;7.45;6.75;;;10.90;46.70;;;;;;5003986;28;20261;-60
2023/11/23 10:34:51;;;;;;;8.13;7.32;;;10.90;51.80;;;;;;5011830;28;20235;-60
2023/11/23 10:37:18;;;;;;;7.90;7.25;;;;;;;;;;5011965;28;20265;-60
2023/11/23 10:39:45;;;;;;;8.02;7.22;;;;;;;;;;5005295;28;20321;-60
2023/11/23 10:42:12;;;;;;;7.60;6.90;;;;;;;;;;5004266;28;20310;-60
2023/11/23 10:44:39;;;;;;;8.05;7.35;;;;;;;;;;5005966;28;20231;-60
2023/11/23 10:47:07;;;;;;;8.05;7.25;;;;;;;;;;5011549;28;20596;-61
2023/11/23 10:49:34;;;;;;;8.23;7.50;;;;;;;;;;5011356;28;20689;-60
2023/11/23 10:52:02;;;;;;;7.82;7.03;;;;;;;;;;5006801;28;20246;-59
2023/11/23 10:54:29;;;;;;;7.45;6.75;;;11.10;73.30;;;;;;5008087;28;20582;-60
2023/11/23 10:56:56;;;;;;;7.28;6.68;;;;;;;;;;4997823;28;20722;-60
2023/11/23 10:59:22;;;;;;;7.85;7.15;;;12.30;34.60;;;;;;5003035;28;20321;-61
2023/11/23 11:01:49;;;;;;;8.35;7.55;;;12.70;34.00;;;;;;5005519;28;20222;-62
2023/11/23 11:04:15;;;;;;;7.55;6.75;;;13.40;33.50;;;;;;5011700;28;20235;-62
2023/11/23 11:06:42;;;;;;;7.38;6.78;;;;;;;;;;5003408;28;20318;-60
2023/11/23 11:09:09;;;;;;;7.25;6.65;;;;;;;;;;5002750;28;20298;-61
2023/11/23 11:11:36;;;;;;;7.18;6.57;;;16.60;36.80;;;;;;4991496;28;20208;-62
2023/11/23 11:14:02;;;;;;;7.47;6.88;;;16.60;27.40;;;;;;5001574;28;20764;-61
2023/11/23 11:16:29;;;;;;;6.78;6.22;;;;;;;;;;5008490;28;20313;-66
2023/11/23 11:18:57;;;;;;;6.78;6.18;;;;;;;;;;4997859;28;20290;-61
2023/11/23 11:21:24;;;;;;;7.00;6.38;;;14.10;30.10;;;;;;5002223;28;20648;-61
2023/11/23 11:23:51;;;;;;;6.88;6.15;;;13.90;29.60;;;;;;5007457;28;20222;-59
2023/11/23 11:26:18;;;;;;;7.07;6.45;;;13.20;32.20;;;;;;4999654;28;20238;-59
2023/11/23 11:28:46;;;;;;;6.88;6.28;;;13.60;31.80;;;;;;4999888;28;20208;-60
2023/11/23 11:31:13;;;;;;;7.43;6.80;;;13.80;31.10;;;;;;4998397;28;20208;-60
2023/11/23 11:33:39;;;;;;;7.32;6.72;;;14.00;31.30;;;;;;5009081;28;20203;-59
2023/11/23 11:36:08;;;;;;;7.55;6.78;;;14.00;31.90;;;;;;5002954;28;20227;-59
2023/11/23 11:38:35;;;;;;;7.00;6.40;;;14.20;31.60;;;;;;5002584;28;20203;-58
2023/11/23 11:41:03;;;;;;;6.68;6.18;;;14.60;31.60;;;;;;5006340;28;20203;-58
2023/11/23 11:43:30;;;;;;;6.63;6.03;;;15.10;29.30;;;;;;5010060;28;20235;-58
2023/11/23 11:45:56;;;;;;;6.35;5.85;;;15.30;29.80;;;;;;5000953;28;20658;-58
2023/11/23 11:48:23;;;;;;;6.68;6.10;;;16.00;28.60;;;;;;5004901;28;20546;-59
2023/11/23 11:50:49;;;;;;;6.47;5.97;;;14.70;29.90;;;;;;5000987;28;20696;-59
2023/11/23 11:53:16;;;;;;;6.85;6.25;;;14.80;29.20;;;;;;5002511;28;20306;-49
2023/11/23 11:55:42;;;;;;;20.00;8.35;;;14.80;31.50;;;;;;4998067;28;20233;-56
2023/11/23 11:58:09;;;;;;;9.52;5.57;;;12.50;32.60;;;;;;5007577;28;20255;-64
2023/11/23 12:00:36;;;;;;;15.30;6.45;;;12.40;33.30;;;;;;5006618;28;20213;-65
2023/11/23 12:03:03;;;;;;;6.07;5.47;;;12.30;34.90;;;;;;5000720;28;20214;-61
2023/11/23 12:05:29;;;;;;;6.43;5.82;;;11.50;33.30;;;;;;5008110;28;20246;-63
2023/11/23 12:07:56;;;;;;;6.72;6.03;;;11.00;34.70;;;;;;5005004;28;20231;-65
2023/11/23 12:10:22;;;;;;;6.73;6.13;;;10.30;36.30;;;;;;5006595;28;20214;-64
2023/11/23 12:12:49;;;;;;;6.13;5.53;;;10.30;37.30;;;;;;5007794;28;20219;-64
2023/11/23 12:15:19;;;;;;;6.63;5.87;;;10.30;36.80;;;;;;5005429;28;20229;-63
2023/11/23 12:17:45;;;;;;;6.53;5.67;;;10.30;36.00;;;;;;5003319;28;20206;-64
2023/11/23 12:20:12;;;;;;;6.60;6.00;;;10.50;36.40;;;;;;5007480;28;20207;-64
2023/11/23 12:22:38;;;;;;;6.93;6.30;;;11.60;33.20;;;;;;5002036;28;20240;-63
2023/11/23 12:25:05;;;;;;;6.00;5.37;;;12.20;32.40;;;;;;4983021;28;20350;-63
2023/11/23 12:27:31;;;;;;;6.40;5.40;;;12.80;32.40;;;;;;4989591;28;20215;-63
2023/11/23 12:29:58;;;;;;;7.47;5.97;;;11.90;32.20;;;;;;5000997;28;20219;-63
2023/11/23 12:32:25;;;;;;;6.23;5.63;;;11.70;33.60;;;;;;5005980;28;20551;-64
2023/11/23 12:34:52;;;;;;;6.43;5.83;;;10.70;35.30;;;;;;5009408;28;20231;-63
2023/11/23 12:37:19;;;;;;;6.43;5.83;;;11.80;34.10;;;;;;5007352;28;20243;-63
2023/11/23 12:39:45;;;;;;;6.40;5.73;;;12.50;32.70;;;;;;5008959;28;20211;-64
2023/11/23 12:42:13;;;;;;;6.93;6.13;;;11.70;34.00;;;;;;5010043;28;20659;-64
2023/11/23 12:44:40;;;;;;;5.60;5.13;;;11.60;33.50;;;;;;5010413;28;20238;-63